createdAt,value
2022-10-25T00:00:49.223Z,13.30
2022-10-25T00:02:24.224Z,13.20
2022-10-25T00:03:46.653Z,13.20
2022-10-25T00:05:11.628Z,13.20
2022-10-25T00:06:33.697Z,13.10
2022-10-25T00:07:55.766Z,13.20
2022-10-25T00:09:17.844Z,13.10
2022-10-25T00:10:39.917Z,13.10
2022-10-25T00:12:02.153Z,13.10
2022-10-25T00:13:24.347Z,13.00
2022-10-25T00:14:46.504Z,13.00
2022-10-25T00:16:15.053Z,13.00
2022-10-25T00:17:37.170Z,13.00
2022-10-25T00:18:59.295Z,13.00
2022-10-25T00:20:21.509Z,12.90
2022-10-25T00:21:43.818Z,12.90
2022-10-25T00:23:06.022Z,12.90
2022-10-25T00:24:28.262Z,12.90
2022-10-25T00:25:50.432Z,12.90
2022-10-25T00:27:12.494Z,12.80
2022-10-25T00:28:34.856Z,12.80
2022-10-25T00:29:56.950Z,12.80
2022-10-25T00:31:19.260Z,12.80
2022-10-25T00:32:41.440Z,12.80
2022-10-25T00:34:03.785Z,12.80
2022-10-25T00:35:26.221Z,12.70
2022-10-25T00:36:48.484Z,12.70
2022-10-25T00:38:10.645Z,12.70
2022-10-25T00:39:32.727Z,12.70
2022-10-25T00:40:54.895Z,12.60
2022-10-25T00:42:26.309Z,12.60
2022-10-25T00:43:54.098Z,12.60
2022-10-25T00:45:28.316Z,12.60
2022-10-25T00:46:50.458Z,12.60
2022-10-25T00:48:12.828Z,12.50
2022-10-25T00:49:35.116Z,12.50
2022-10-25T00:50:57.940Z,12.50
2022-10-25T00:52:20.643Z,12.50
2022-10-25T00:53:43.312Z,12.50
2022-10-25T00:55:06.679Z,12.40
2022-10-25T00:56:33.812Z,12.40
2022-10-25T00:58:01.874Z,12.40
2022-10-25T00:59:26.130Z,12.40
2022-10-25T01:00:49.167Z,12.40
2022-10-25T01:02:11.844Z,12.40
2022-10-25T01:03:36.886Z,12.40
2022-10-25T01:04:59.054Z,12.40
2022-10-25T01:06:31.481Z,12.40
2022-10-25T01:07:53.934Z,12.40
2022-10-25T01:09:20.645Z,12.40
2022-10-25T01:10:42.791Z,12.40
2022-10-25T01:12:05.094Z,12.40
2022-10-25T01:13:27.208Z,12.40
2022-10-25T01:14:51.462Z,12.30
2022-10-25T01:16:32.612Z,12.40
2022-10-25T01:18:10.594Z,12.40
2022-10-25T01:19:57.538Z,12.40
2022-10-25T01:21:45.525Z,12.40
2022-10-25T01:23:15.325Z,12.40
2022-10-25T01:24:52.432Z,12.40
2022-10-25T01:26:37.722Z,12.40
2022-10-25T01:28:15.410Z,12.40
2022-10-25T01:30:08.549Z,12.40
2022-10-25T01:32:14.720Z,12.40
2022-10-25T01:33:56.682Z,12.30
2022-10-25T01:35:29.542Z,12.30
2022-10-25T01:37:42.170Z,12.30
2022-10-25T01:39:22.129Z,12.30
2022-10-25T01:40:47.169Z,12.20
2022-10-25T01:42:33.007Z,12.20
2022-10-25T01:44:30.577Z,12.20
2022-10-25T01:45:57.991Z,12.20
2022-10-25T01:47:33.006Z,12.20
2022-10-25T01:49:19.864Z,12.20
2022-10-25T01:50:45.621Z,12.20
2022-10-25T01:52:07.734Z,12.20
2022-10-25T01:53:29.761Z,12.20
2022-10-25T01:54:52.352Z,12.20
2022-10-25T01:56:30.530Z,12.20
2022-10-25T01:57:58.727Z,12.20
2022-10-25T01:59:29.753Z,12.20
2022-10-25T02:01:29.453Z,12.20
2022-10-25T02:02:57.369Z,12.20
2022-10-25T02:04:42.411Z,12.20
2022-10-25T02:06:32.518Z,12.20
2022-10-25T02:08:12.637Z,12.20
2022-10-25T02:09:45.574Z,12.10
2022-10-25T02:11:27.435Z,12.10
2022-10-25T02:13:02.037Z,12.10
2022-10-25T02:14:31.423Z,12.00
2022-10-25T02:15:58.885Z,12.00
2022-10-25T02:17:25.645Z,12.00
2022-10-25T02:18:53.287Z,12.00
2022-10-25T02:20:18.784Z,11.90
2022-10-25T02:21:43.961Z,11.90
2022-10-25T02:23:06.342Z,11.90
2022-10-25T02:24:31.253Z,11.90
2022-10-25T02:25:54.249Z,11.80
2022-10-25T02:27:18.069Z,11.80
2022-10-25T02:28:41.923Z,11.80
2022-10-25T02:30:05.233Z,11.80
2022-10-25T02:31:28.963Z,11.80
2022-10-25T02:32:51.584Z,11.80
2022-10-25T02:34:13.591Z,11.80
2022-10-25T02:35:35.638Z,11.70
2022-10-25T02:36:58.198Z,11.70
2022-10-25T02:38:20.223Z,11.70
2022-10-25T02:39:42.840Z,11.70
2022-10-25T02:41:06.570Z,11.70
2022-10-25T02:42:28.623Z,11.70
2022-10-25T02:43:50.749Z,11.70
2022-10-25T02:45:12.883Z,11.70
2022-10-25T02:46:35.027Z,11.70
2022-10-25T02:47:57.080Z,11.80
2022-10-25T02:49:19.234Z,11.80
2022-10-25T02:50:41.276Z,11.90
2022-10-25T02:52:03.404Z,11.90
2022-10-25T02:53:25.415Z,11.90
2022-10-25T02:54:47.443Z,11.90
2022-10-25T02:56:19.547Z,11.90
2022-10-25T02:57:41.555Z,11.90
2022-10-25T02:59:03.753Z,11.90
2022-10-25T03:00:25.808Z,11.90
2022-10-25T03:01:48.713Z,11.90
2022-10-25T03:03:10.911Z,11.90
2022-10-25T03:04:32.945Z,11.90
2022-10-25T03:05:55.057Z,11.90
2022-10-25T03:07:17.112Z,11.90
2022-10-25T03:08:40.789Z,11.90
2022-10-25T03:10:02.877Z,12.00
2022-10-25T03:11:24.901Z,12.00
2022-10-25T03:12:47.095Z,12.00
2022-10-25T03:14:09.254Z,12.00
2022-10-25T03:15:31.333Z,12.00
2022-10-25T03:16:53.364Z,12.00
2022-10-25T03:18:15.651Z,12.00
2022-10-25T03:19:37.642Z,12.00
2022-10-25T03:21:01.441Z,11.90
2022-10-25T03:22:23.457Z,11.90
2022-10-25T03:23:45.466Z,11.90
2022-10-25T03:26:30.885Z,11.90
2022-10-25T03:27:52.936Z,11.90
2022-10-25T03:29:14.945Z,11.90
2022-10-25T03:30:37.091Z,11.90
2022-10-25T03:31:59.090Z,11.90
2022-10-25T03:33:21.314Z,11.90
2022-10-25T03:34:43.398Z,11.90
2022-10-25T03:36:05.871Z,11.90
2022-10-25T03:37:27.903Z,11.80
2022-10-25T03:38:49.865Z,11.80
2022-10-25T03:40:12.175Z,11.80
2022-10-25T03:41:34.222Z,11.80
2022-10-25T03:42:56.284Z,11.80
2022-10-25T03:44:18.289Z,11.80
2022-10-25T03:45:40.309Z,11.80
2022-10-25T03:47:02.348Z,11.80
2022-10-25T03:48:24.331Z,11.80
2022-10-25T03:49:46.487Z,11.70
2022-10-25T03:51:08.564Z,11.70
2022-10-25T03:52:30.651Z,11.70
2022-10-25T03:53:52.656Z,11.70
2022-10-25T03:55:14.718Z,11.70
2022-10-25T03:56:36.760Z,11.70
2022-10-25T03:57:59.002Z,11.70
2022-10-25T03:59:21.035Z,11.60
2022-10-25T04:00:43.087Z,11.70
2022-10-25T04:02:05.217Z,11.60
2022-10-25T04:03:27.422Z,11.60
2022-10-25T04:04:49.470Z,11.60
2022-10-25T04:06:11.627Z,11.60
2022-10-25T04:07:33.662Z,11.60
2022-10-25T04:08:56.612Z,11.60
2022-10-25T04:10:21.792Z,11.60
2022-10-25T04:11:43.890Z,11.60
2022-10-25T04:13:05.960Z,11.50
2022-10-25T04:14:28.015Z,11.50
2022-10-25T04:15:50.180Z,11.50
2022-10-25T04:17:12.286Z,11.50
2022-10-25T04:18:34.544Z,11.50
2022-10-25T04:19:56.560Z,11.50
2022-10-25T04:21:18.810Z,11.60
2022-10-25T04:22:40.840Z,11.50
2022-10-25T04:24:04.411Z,11.50
2022-10-25T04:25:28.094Z,11.50
2022-10-25T04:26:50.152Z,11.50
2022-10-25T04:28:12.169Z,11.50
2022-10-25T04:29:34.180Z,11.50
2022-10-25T04:30:56.184Z,11.50
2022-10-25T04:33:52.353Z,11.50
2022-10-25T04:35:14.481Z,11.50
2022-10-25T04:36:36.564Z,11.50
2022-10-25T04:37:59.243Z,11.50
2022-10-25T04:39:21.262Z,11.50
2022-10-25T04:40:43.262Z,11.50
2022-10-25T04:42:05.410Z,11.50
2022-10-25T04:43:29.051Z,11.50
2022-10-25T04:44:51.136Z,11.40
2022-10-25T04:46:13.488Z,11.50
2022-10-25T04:47:35.649Z,11.40
2022-10-25T04:48:57.635Z,11.50
2022-10-25T04:50:19.696Z,11.40
2022-10-25T04:51:42.001Z,11.40
2022-10-25T04:53:05.016Z,11.40
2022-10-25T04:54:27.127Z,11.40
2022-10-25T04:55:58.694Z,11.40
2022-10-25T04:57:20.709Z,11.40
2022-10-25T04:58:42.739Z,11.40
2022-10-25T05:00:05.377Z,11.40
2022-10-25T05:01:27.469Z,11.40
2022-10-25T05:02:52.538Z,11.40
2022-10-25T05:04:14.576Z,11.40
2022-10-25T05:05:36.587Z,11.40
2022-10-25T05:06:58.561Z,11.40
2022-10-25T05:08:20.628Z,11.40
2022-10-25T05:09:45.192Z,11.40
2022-10-25T05:11:11.695Z,11.40
2022-10-25T05:12:33.724Z,11.40
2022-10-25T05:13:55.797Z,11.40
2022-10-25T05:15:17.808Z,11.40
2022-10-25T05:16:40.029Z,11.40
2022-10-25T05:18:02.342Z,11.40
2022-10-25T05:19:24.404Z,11.40
2022-10-25T05:20:55.223Z,11.40
2022-10-25T05:22:17.302Z,11.40
2022-10-25T05:23:39.456Z,11.40
2022-10-25T05:25:01.473Z,11.40
2022-10-25T05:26:23.647Z,11.40
2022-10-25T05:27:45.728Z,11.40
2022-10-25T05:29:10.480Z,11.40
2022-10-25T05:30:32.584Z,11.40
2022-10-25T05:31:54.659Z,11.40
2022-10-25T05:33:16.746Z,11.40
2022-10-25T05:34:38.739Z,11.50
2022-10-25T05:36:01.924Z,11.50
2022-10-25T05:37:23.989Z,11.50
2022-10-25T05:38:46.362Z,11.50
2022-10-25T05:40:09.139Z,11.60
2022-10-25T05:41:34.556Z,11.60
2022-10-25T05:42:59.036Z,11.60
2022-10-25T05:44:21.072Z,11.60
2022-10-25T05:45:43.065Z,11.70
2022-10-25T05:47:05.103Z,11.70
2022-10-25T05:48:27.144Z,11.70
2022-10-25T05:49:49.123Z,11.70
2022-10-25T05:51:32.487Z,11.80
2022-10-25T05:52:55.586Z,11.80
2022-10-25T05:54:17.739Z,11.90
2022-10-25T05:55:39.843Z,11.90
2022-10-25T05:57:01.830Z,11.90
2022-10-25T05:58:23.873Z,12.00
2022-10-25T05:59:45.861Z,12.00
2022-10-25T06:01:13.477Z,12.00
2022-10-25T06:02:35.566Z,12.10
2022-10-25T06:03:57.631Z,12.10
2022-10-25T06:05:21.794Z,12.20
2022-10-25T06:06:47.535Z,12.20
2022-10-25T06:08:09.557Z,12.20
2022-10-25T06:09:31.575Z,12.20
2022-10-25T06:10:53.655Z,12.20
2022-10-25T06:12:15.760Z,12.20
2022-10-25T06:13:38.644Z,12.20
2022-10-25T06:15:00.610Z,12.20
2022-10-25T06:16:23.075Z,12.20
2022-10-25T06:17:45.096Z,12.20
2022-10-25T06:19:07.404Z,12.20
2022-10-25T06:20:29.636Z,12.20
2022-10-25T06:21:54.235Z,12.30
2022-10-25T06:23:16.276Z,12.30
2022-10-25T06:24:38.373Z,12.30
2022-10-25T06:26:05.362Z,12.30
2022-10-25T06:27:27.365Z,12.30
2022-10-25T06:28:53.074Z,12.30
2022-10-25T06:30:15.159Z,12.40
2022-10-25T06:31:37.201Z,12.40
2022-10-25T06:33:00.322Z,12.40
2022-10-25T06:34:22.482Z,12.50
2022-10-25T06:35:44.461Z,12.50
2022-10-25T06:37:06.484Z,12.50
2022-10-25T06:38:29.650Z,12.50
2022-10-25T06:39:51.627Z,12.60
2022-10-25T06:41:16.003Z,12.60
2022-10-25T06:42:38.026Z,12.60
2022-10-25T06:44:05.385Z,12.70
2022-10-25T06:45:28.908Z,12.70
2022-10-25T06:48:32.953Z,12.80
2022-10-25T06:49:54.966Z,12.80
2022-10-25T06:51:17.192Z,12.80
2022-10-25T06:52:39.209Z,12.80
2022-10-25T06:54:05.516Z,12.80
2022-10-25T06:55:27.481Z,12.90
2022-10-25T06:56:49.654Z,12.90
2022-10-25T06:58:11.726Z,12.90
2022-10-25T06:59:33.761Z,12.90
2022-10-25T07:00:55.818Z,13.00
2022-10-25T07:02:17.979Z,13.00
2022-10-25T07:03:40.971Z,13.00
2022-10-25T07:05:03.147Z,13.00
2022-10-25T07:06:30.249Z,13.00
2022-10-25T07:07:52.574Z,13.00
2022-10-25T07:09:15.696Z,13.00
2022-10-25T07:10:37.875Z,13.10
2022-10-25T07:11:59.879Z,13.10
2022-10-25T07:13:22.925Z,13.10
2022-10-25T07:14:45.010Z,13.20
2022-10-25T07:16:09.734Z,13.20
2022-10-25T07:17:31.745Z,13.30
2022-10-25T07:19:01.395Z,13.40
2022-10-25T07:20:23.374Z,13.40
2022-10-25T07:21:45.359Z,13.40
2022-10-25T07:23:08.804Z,13.50
2022-10-25T07:24:31.391Z,13.50
2022-10-25T07:25:53.477Z,13.60
2022-10-25T07:27:15.650Z,13.70
2022-10-25T07:28:37.986Z,13.80
2022-10-25T07:30:00.062Z,14.00
2022-10-25T07:31:24.646Z,14.10
2022-10-25T07:32:46.631Z,14.20
2022-10-25T07:34:13.336Z,14.30
2022-10-25T07:35:41.993Z,14.40
2022-10-25T07:37:14.464Z,14.60
2022-10-25T07:38:36.580Z,14.60
2022-10-25T07:39:58.839Z,14.70
2022-10-25T07:41:20.933Z,14.70
2022-10-25T07:42:42.932Z,14.70
2022-10-25T07:44:04.993Z,14.60
2022-10-25T07:45:28.868Z,14.60
2022-10-25T07:46:53.972Z,14.60
2022-10-25T07:48:16.134Z,14.60
2022-10-25T07:49:39.909Z,14.60
2022-10-25T07:51:10.995Z,14.60
2022-10-25T07:52:33.032Z,14.60
2022-10-25T07:53:55.088Z,14.60
2022-10-25T07:55:17.096Z,14.60
2022-10-25T07:56:39.103Z,14.50
2022-10-25T07:58:02.285Z,14.60
2022-10-25T07:59:25.013Z,14.60
2022-10-25T08:00:47.426Z,14.60
2022-10-25T08:02:20.101Z,14.60
2022-10-25T08:03:45.073Z,14.60
2022-10-25T08:05:09.361Z,14.60
2022-10-25T08:06:31.352Z,14.60
2022-10-25T08:07:53.575Z,14.60
2022-10-25T08:09:36.900Z,14.70
2022-10-25T08:10:59.468Z,14.70
2022-10-25T08:12:22.660Z,14.70
2022-10-25T08:13:47.322Z,14.80
2022-10-25T08:15:09.864Z,14.90
2022-10-25T08:16:31.865Z,15.00
2022-10-25T08:18:00.747Z,15.10
2022-10-25T08:19:22.783Z,15.20
2022-10-25T08:21:01.218Z,15.30
2022-10-25T08:22:24.630Z,15.40
2022-10-25T08:23:46.845Z,15.50
2022-10-25T08:25:09.386Z,15.60
2022-10-25T08:26:36.596Z,15.70
2022-10-25T08:27:59.232Z,15.80
2022-10-25T08:29:21.303Z,15.80
2022-10-25T08:30:43.717Z,15.90
2022-10-25T08:32:05.866Z,16.00
2022-10-25T08:33:27.920Z,16.10
2022-10-25T08:34:49.901Z,16.20
2022-10-25T08:36:11.901Z,16.20
2022-10-25T08:37:34.148Z,16.20
2022-10-25T08:38:56.184Z,16.30
2022-10-25T08:40:26.324Z,16.40
2022-10-25T08:41:53.459Z,16.40
2022-10-25T08:43:45.909Z,16.40
2022-10-25T08:45:19.048Z,16.40
2022-10-25T08:46:59.156Z,16.30
2022-10-25T08:48:27.127Z,16.30
2022-10-25T08:49:58.928Z,16.30
2022-10-25T08:51:35.797Z,16.30
2022-10-25T08:53:01.598Z,16.30
2022-10-25T08:54:37.722Z,16.30
2022-10-25T08:56:17.410Z,16.30
2022-10-25T08:57:46.869Z,16.40
2022-10-25T08:59:16.141Z,16.40
2022-10-25T09:00:40.408Z,16.40
2022-10-25T09:02:03.264Z,16.50
2022-10-25T09:03:26.947Z,16.50
2022-10-25T09:04:49.016Z,16.60
2022-10-25T09:06:37.572Z,16.60
2022-10-25T09:08:03.710Z,16.70
2022-10-25T09:09:39.715Z,17.00
2022-10-25T09:11:18.602Z,17.10
2022-10-25T09:12:55.441Z,17.10
2022-10-25T09:14:39.264Z,17.10
2022-10-25T09:16:16.330Z,17.10
2022-10-25T09:17:50.343Z,17.00
2022-10-25T09:19:29.419Z,17.10
2022-10-25T09:20:52.663Z,17.00
2022-10-25T09:22:30.568Z,17.00
2022-10-25T09:24:09.861Z,17.00
2022-10-25T09:25:53.035Z,16.90
2022-10-25T09:27:24.875Z,16.90
2022-10-25T09:28:50.276Z,16.80
2022-10-25T09:30:13.553Z,16.70
2022-10-25T09:31:44.121Z,16.70
2022-10-25T09:33:11.709Z,16.60
2022-10-25T09:34:33.772Z,16.60
2022-10-25T09:35:57.410Z,16.60
2022-10-25T09:37:29.839Z,16.60
2022-10-25T09:38:59.898Z,16.60
2022-10-25T09:40:24.895Z,16.60
2022-10-25T09:41:53.122Z,16.50
2022-10-25T09:43:19.846Z,16.60
2022-10-25T09:45:00.396Z,16.70
2022-10-25T09:46:51.610Z,16.80
2022-10-25T09:48:57.810Z,16.80
2022-10-25T09:50:30.098Z,16.90
2022-10-25T09:52:00.123Z,16.90
2022-10-25T09:53:24.153Z,17.00
2022-10-25T09:54:53.803Z,17.00
2022-10-25T09:56:17.269Z,17.10
2022-10-25T09:57:39.373Z,17.20
2022-10-25T09:59:04.387Z,17.20
2022-10-25T10:00:26.513Z,17.20
2022-10-25T10:01:48.686Z,17.10
2022-10-25T10:03:12.870Z,17.00
2022-10-25T10:04:39.225Z,17.00
2022-10-25T10:06:07.369Z,16.90
2022-10-25T10:07:34.476Z,16.80
2022-10-25T10:09:16.468Z,16.70
2022-10-25T10:10:39.900Z,16.70
2022-10-25T10:12:05.493Z,16.70
2022-10-25T10:13:43.045Z,16.70
2022-10-25T10:15:28.586Z,16.70
2022-10-25T10:16:54.362Z,16.60
2022-10-25T10:18:31.003Z,16.60
2022-10-25T10:20:25.864Z,16.70
2022-10-25T10:21:55.262Z,16.70
2022-10-25T10:23:18.063Z,16.70
2022-10-25T10:24:42.652Z,16.70
2022-10-25T10:26:30.621Z,16.70
2022-10-25T10:27:55.978Z,16.70
2022-10-25T10:29:29.270Z,16.60
2022-10-25T10:30:57.153Z,16.50
2022-10-25T10:32:33.645Z,16.50
2022-10-25T10:33:55.741Z,16.40
2022-10-25T10:35:37.129Z,16.40
2022-10-25T10:37:12.927Z,16.40
2022-10-25T10:38:35.087Z,16.30
2022-10-25T10:40:09.086Z,16.30
2022-10-25T10:41:31.089Z,16.20
2022-10-25T10:42:55.761Z,16.20
2022-10-25T10:44:20.977Z,16.20
2022-10-25T10:45:50.364Z,16.10
2022-10-25T10:47:20.950Z,16.10
2022-10-25T10:48:45.401Z,16.00
2022-10-25T10:50:22.472Z,16.00
2022-10-25T10:51:46.103Z,16.00
2022-10-25T10:53:29.538Z,16.00
2022-10-25T10:54:52.612Z,16.10
2022-10-25T10:56:23.231Z,16.10
2022-10-25T10:57:45.569Z,16.20
2022-10-25T10:59:28.541Z,16.20
2022-10-25T11:00:51.595Z,16.30
2022-10-25T11:02:28.444Z,16.30
2022-10-25T11:03:59.819Z,16.40
2022-10-25T11:05:27.601Z,16.50
2022-10-25T11:06:49.614Z,16.70
2022-10-25T11:08:11.619Z,16.80
2022-10-25T11:09:33.648Z,16.80
2022-10-25T11:11:13.746Z,16.90
2022-10-25T11:12:40.922Z,17.00
2022-10-25T11:14:15.951Z,16.90
2022-10-25T11:16:04.973Z,16.90
2022-10-25T11:17:34.136Z,16.90
2022-10-25T11:19:19.181Z,16.80
2022-10-25T11:20:50.739Z,16.80
2022-10-25T11:22:40.199Z,16.70
2022-10-25T11:24:27.085Z,16.70
2022-10-25T11:26:21.052Z,16.70
2022-10-25T11:28:15.912Z,16.60
2022-10-25T11:29:45.529Z,16.60
2022-10-25T11:31:23.494Z,16.70
2022-10-25T11:33:07.318Z,16.70
2022-10-25T11:34:51.119Z,16.70
2022-10-25T11:36:42.550Z,16.80
2022-10-25T11:38:19.414Z,17.00
2022-10-25T11:40:16.299Z,17.20
2022-10-25T11:41:45.423Z,17.30
2022-10-25T11:43:16.634Z,17.40
2022-10-25T11:44:45.799Z,17.40
2022-10-25T11:46:43.692Z,17.40
2022-10-25T11:48:11.599Z,17.40
2022-10-25T11:50:27.632Z,17.30
2022-10-25T11:52:02.763Z,17.30
2022-10-25T11:54:02.280Z,17.30
2022-10-25T11:55:30.169Z,17.30
2022-10-25T11:57:04.833Z,17.40
2022-10-25T11:58:44.628Z,17.50
2022-10-25T12:00:12.668Z,17.60
2022-10-25T12:02:03.663Z,17.60
2022-10-25T12:03:34.314Z,17.70
2022-10-25T12:05:15.049Z,17.80
2022-10-25T12:06:42.531Z,18.00
2022-10-25T12:08:31.072Z,18.10
2022-10-25T12:10:10.760Z,18.20
2022-10-25T12:11:57.503Z,18.50
2022-10-25T12:13:21.967Z,18.60
2022-10-25T12:14:49.262Z,18.60
2022-10-25T12:16:15.241Z,18.50
2022-10-25T12:17:37.316Z,18.40
2022-10-25T12:19:23.035Z,18.40
2022-10-25T12:20:47.906Z,18.60
2022-10-25T12:22:17.187Z,18.60
2022-10-25T12:23:57.630Z,18.60
2022-10-25T12:25:34.929Z,18.60
2022-10-25T12:26:58.081Z,18.50
2022-10-25T12:28:31.926Z,18.60
2022-10-25T12:29:58.552Z,18.70
2022-10-25T12:31:28.638Z,18.70
2022-10-25T12:33:19.396Z,18.80
2022-10-25T12:34:45.770Z,18.80
2022-10-25T12:36:18.304Z,18.80
2022-10-25T12:37:49.020Z,18.70
2022-10-25T12:39:18.381Z,18.70
2022-10-25T12:40:45.161Z,18.60
2022-10-25T12:42:21.362Z,18.40
2022-10-25T12:44:07.608Z,18.30
2022-10-25T12:45:54.693Z,18.10
2022-10-25T12:47:48.656Z,18.10
2022-10-25T12:49:23.347Z,18.00
2022-10-25T12:51:02.221Z,18.00
2022-10-25T12:52:40.819Z,18.00
2022-10-25T12:54:27.761Z,17.90
2022-10-25T12:56:11.536Z,17.80
2022-10-25T12:58:02.235Z,17.70
2022-10-25T12:59:55.597Z,17.80
2022-10-25T13:01:46.588Z,17.80
2022-10-25T13:03:35.559Z,17.80
2022-10-25T13:05:06.334Z,17.70
2022-10-25T13:06:34.358Z,17.70
2022-10-25T13:08:02.804Z,17.60
2022-10-25T13:09:32.429Z,17.50
2022-10-25T13:11:00.356Z,17.40
2022-10-25T13:12:23.992Z,17.40
2022-10-25T13:13:52.060Z,17.30
2022-10-25T13:15:19.006Z,17.30
2022-10-25T13:16:41.318Z,17.20
2022-10-25T13:18:06.520Z,17.20
2022-10-25T13:21:17.339Z,17.20
2022-10-25T13:22:41.358Z,17.20
2022-10-25T13:24:03.673Z,17.20
2022-10-25T13:25:31.878Z,17.20
2022-10-25T13:27:12.368Z,17.10
2022-10-25T13:28:46.849Z,17.20
2022-10-25T13:30:13.062Z,17.30
2022-10-25T13:31:35.172Z,17.30
2022-10-25T13:33:24.490Z,17.40
2022-10-25T13:34:47.386Z,17.40
2022-10-25T13:36:09.590Z,17.50
2022-10-25T13:37:41.084Z,17.50
2022-10-25T13:39:05.410Z,17.60
2022-10-25T13:40:31.539Z,17.60
2022-10-25T13:42:15.954Z,17.60
2022-10-25T13:44:04.689Z,17.60
2022-10-25T13:45:35.704Z,17.50
2022-10-25T13:46:57.747Z,17.50
2022-10-25T13:48:30.513Z,17.50
2022-10-25T13:49:52.772Z,17.60
2022-10-25T13:51:16.873Z,17.60
2022-10-25T13:53:03.085Z,17.60
2022-10-25T13:54:42.419Z,17.60
2022-10-25T13:56:07.765Z,17.40
2022-10-25T13:57:52.591Z,17.30
2022-10-25T13:59:58.499Z,17.20
2022-10-25T14:01:24.983Z,17.20
2022-10-25T14:03:09.143Z,17.20
2022-10-25T14:04:37.718Z,17.20
2022-10-25T14:05:59.696Z,17.20
2022-10-25T14:07:51.398Z,17.20
2022-10-25T14:09:36.417Z,17.00
2022-10-25T14:11:57.747Z,16.90
2022-10-25T14:13:30.404Z,16.70
2022-10-25T14:15:21.360Z,16.60
2022-10-25T14:17:13.498Z,16.50
2022-10-25T14:18:36.907Z,16.50
2022-10-25T14:20:04.027Z,16.50
2022-10-25T14:21:26.671Z,16.50
2022-10-25T14:23:00.658Z,16.60
2022-10-25T14:24:23.129Z,16.60
2022-10-25T14:25:55.396Z,16.70
2022-10-25T14:27:26.155Z,16.70
2022-10-25T14:28:48.625Z,16.70
2022-10-25T14:30:13.528Z,16.70
2022-10-25T14:31:35.595Z,16.70
2022-10-25T14:33:04.095Z,16.70
2022-10-25T14:34:29.960Z,16.70
2022-10-25T14:36:04.841Z,16.70
2022-10-25T14:37:26.899Z,16.70
2022-10-25T14:38:59.612Z,16.70
2022-10-25T14:40:24.673Z,16.70
2022-10-25T14:42:03.212Z,16.70
2022-10-25T14:43:28.824Z,16.70
2022-10-25T14:44:51.258Z,16.60
2022-10-25T14:46:17.905Z,16.60
2022-10-25T14:47:42.291Z,16.50
2022-10-25T14:49:04.381Z,16.50
2022-10-25T14:50:26.604Z,16.50
2022-10-25T14:51:54.319Z,16.50
2022-10-25T14:53:17.811Z,16.40
2022-10-25T14:54:41.890Z,16.30
2022-10-25T14:56:05.755Z,16.20
2022-10-25T14:57:28.825Z,16.20
2022-10-25T14:58:51.033Z,16.10
2022-10-25T15:00:18.858Z,16.00
2022-10-25T15:01:41.381Z,15.90
2022-10-25T15:03:05.206Z,15.90
2022-10-25T15:04:38.690Z,15.90
2022-10-25T15:06:00.885Z,15.80
2022-10-25T15:07:25.549Z,15.80
2022-10-25T15:08:52.233Z,15.70
2022-10-25T15:10:35.917Z,15.70
2022-10-25T15:12:13.197Z,15.60
2022-10-25T15:13:38.120Z,15.60
2022-10-25T15:15:44.802Z,15.60
2022-10-25T15:17:24.081Z,15.50
2022-10-25T15:19:01.962Z,15.40
2022-10-25T15:20:32.694Z,15.40
2022-10-25T15:22:06.643Z,15.20
2022-10-25T15:23:28.743Z,15.20
2022-10-25T15:24:50.799Z,15.20
2022-10-25T15:26:30.217Z,15.10
2022-10-25T15:27:57.159Z,15.10
2022-10-25T15:29:40.520Z,15.00
2022-10-25T15:31:07.311Z,14.90
2022-10-25T15:32:29.309Z,14.90
2022-10-25T15:34:02.206Z,14.80
2022-10-25T15:35:26.648Z,14.80
2022-10-25T15:36:49.896Z,14.80
2022-10-25T15:38:11.949Z,14.80
2022-10-25T15:39:34.034Z,14.80
2022-10-25T15:40:56.473Z,14.80
2022-10-25T15:42:19.249Z,14.80
2022-10-25T15:43:41.237Z,14.80
2022-10-25T15:45:04.599Z,14.90
2022-10-25T15:46:33.255Z,14.90
2022-10-25T15:47:57.473Z,14.80
2022-10-25T15:49:19.686Z,14.80
2022-10-25T15:50:47.283Z,14.80
2022-10-25T15:52:15.193Z,14.80
2022-10-25T15:53:37.263Z,14.70
2022-10-25T15:54:59.303Z,14.70
2022-10-25T15:56:21.721Z,14.60
2022-10-25T15:57:43.765Z,14.50
2022-10-25T15:59:05.863Z,14.50
2022-10-25T16:00:30.650Z,14.40
2022-10-25T16:01:55.039Z,14.40
2022-10-25T16:03:22.573Z,14.30
2022-10-25T16:04:44.748Z,14.20
2022-10-25T16:06:06.965Z,14.20
2022-10-25T16:07:30.552Z,14.20
2022-10-25T16:08:52.521Z,14.10
2022-10-25T16:10:15.162Z,14.10
2022-10-25T16:11:43.614Z,14.10
2022-10-25T16:13:32.996Z,14.10
2022-10-25T16:14:55.190Z,14.00
2022-10-25T16:16:41.491Z,14.00
2022-10-25T16:18:04.018Z,14.00
2022-10-25T16:19:28.293Z,13.90
2022-10-25T16:20:50.955Z,13.90
2022-10-25T16:22:12.991Z,13.80
2022-10-25T16:23:35.049Z,13.80
2022-10-25T16:24:57.073Z,13.80
2022-10-25T16:26:33.588Z,13.80
2022-10-25T16:27:55.709Z,13.80
2022-10-25T16:29:24.693Z,13.70
2022-10-25T16:30:47.694Z,13.70
2022-10-25T16:32:10.266Z,13.70
2022-10-25T16:33:32.275Z,13.60
2022-10-25T16:34:54.327Z,13.60
2022-10-25T16:36:16.548Z,13.60
2022-10-25T16:37:38.655Z,13.60
2022-10-25T16:39:00.705Z,13.60
2022-10-25T16:40:23.111Z,13.50
2022-10-25T16:41:46.237Z,13.50
2022-10-25T16:43:11.618Z,13.50
2022-10-25T16:44:35.165Z,13.40
2022-10-25T16:45:57.198Z,13.40
2022-10-25T16:47:21.401Z,13.40
2022-10-25T16:48:43.490Z,13.40
2022-10-25T16:50:06.074Z,13.30
2022-10-25T16:51:28.749Z,13.30
2022-10-25T16:52:52.063Z,13.30
2022-10-25T16:54:15.784Z,13.30
2022-10-25T16:55:37.933Z,13.20
2022-10-25T16:56:59.965Z,13.20
2022-10-25T16:58:21.973Z,13.10
2022-10-25T16:59:44.107Z,13.10
2022-10-25T17:01:28.952Z,13.10
2022-10-25T17:02:51.640Z,13.00
2022-10-25T17:04:14.691Z,13.00
2022-10-25T17:05:38.935Z,13.00
2022-10-25T17:07:01.020Z,13.00
2022-10-25T17:08:23.048Z,13.00
2022-10-25T17:09:45.480Z,13.00
2022-10-25T17:11:07.681Z,12.90
2022-10-25T17:12:29.720Z,12.90
2022-10-25T17:13:51.793Z,12.80
2022-10-25T17:15:14.838Z,12.80
2022-10-25T17:16:39.588Z,12.80
2022-10-25T17:18:01.682Z,12.80
2022-10-25T17:19:23.781Z,12.80
2022-10-25T17:20:45.812Z,12.80
2022-10-25T17:22:07.952Z,12.80
2022-10-25T17:23:29.950Z,12.80
2022-10-25T17:24:51.964Z,12.80
2022-10-25T17:26:14.057Z,12.70
2022-10-25T17:27:39.636Z,12.70
2022-10-25T17:29:01.902Z,12.70
2022-10-25T17:30:24.020Z,12.70
2022-10-25T17:31:46.111Z,12.70
2022-10-25T17:33:08.162Z,12.70
2022-10-25T17:34:32.120Z,12.70
2022-10-25T17:35:54.370Z,12.70
2022-10-25T17:37:16.386Z,12.70
2022-10-25T17:38:38.762Z,12.70
2022-10-25T17:40:01.190Z,12.60
2022-10-25T17:41:23.268Z,12.60
2022-10-25T17:42:46.011Z,12.60
2022-10-25T17:44:10.703Z,12.60
2022-10-25T17:45:32.921Z,12.60
2022-10-25T17:46:56.447Z,12.60
2022-10-25T17:48:20.665Z,12.60
2022-10-25T17:49:42.880Z,12.60
2022-10-25T17:51:07.577Z,12.60
2022-10-25T17:52:29.936Z,12.60
2022-10-25T17:53:56.533Z,12.60
2022-10-25T17:55:18.620Z,12.60
2022-10-25T17:56:40.686Z,12.60
2022-10-25T17:58:03.311Z,12.60
2022-10-25T17:59:26.922Z,12.50
2022-10-25T18:00:49.198Z,12.50
2022-10-25T18:02:12.194Z,12.50
2022-10-25T18:03:34.507Z,12.40
2022-10-25T18:05:18.966Z,12.40
2022-10-25T18:06:39.068Z,12.40
2022-10-25T18:08:01.039Z,12.40
2022-10-25T18:09:23.085Z,12.40
2022-10-25T18:10:45.233Z,12.30
2022-10-25T18:12:09.491Z,12.30
2022-10-25T18:13:31.465Z,12.30
2022-10-25T18:14:55.642Z,12.30
2022-10-25T18:16:18.221Z,12.30
2022-10-25T18:17:40.815Z,12.20
2022-10-25T18:19:05.357Z,12.20
2022-10-25T18:20:27.345Z,12.20
2022-10-25T18:21:49.403Z,12.20
2022-10-25T18:23:13.491Z,12.20
2022-10-25T18:24:37.103Z,12.10
2022-10-25T18:25:59.452Z,12.10
2022-10-25T18:27:21.594Z,12.10
2022-10-25T18:28:43.923Z,12.10
2022-10-25T18:30:06.846Z,12.10
2022-10-25T18:31:29.030Z,12.10
2022-10-25T18:32:51.331Z,12.00
2022-10-25T18:34:13.446Z,12.00
2022-10-25T18:35:35.617Z,12.00
2022-10-25T18:36:57.788Z,11.90
2022-10-25T18:38:19.797Z,11.90
2022-10-25T18:39:41.813Z,11.90
2022-10-25T18:41:14.022Z,11.90
2022-10-25T18:42:36.537Z,11.90
2022-10-25T18:43:59.165Z,11.90
2022-10-25T18:45:21.230Z,11.90
2022-10-25T18:46:43.457Z,11.90
2022-10-25T18:48:05.690Z,11.90
2022-10-25T18:49:27.770Z,11.90
2022-10-25T18:50:49.788Z,11.90
2022-10-25T18:52:11.921Z,11.90
2022-10-25T18:53:38.608Z,11.90